Time;durP1;ratioP1;P1;durP2;ratioP2;P2;SDS_P1;SDS_P2;PMS_P1;PMS_P2;Temp;Humidity;BMP_temperature;BMP_pressure;BME280_temperature;BME280_humidity;BME280_pressure;Samples;Min_cycle;Max_cycle;Signal;HPM_P1;HPM_P2
2023/09/14 00:01:27;;;;;;;11.73;7.07;;;17.60;99.90;;;;;;4195027;28;20043;-64
2023/09/14 00:03:28;;;;;;;13.27;6.65;;;17.60;99.90;;;;;;4193283;28;20044;-62
2023/09/14 00:05:30;;;;;;;11.35;6.60;;;17.50;99.90;;;;;;4194730;28;20063;-61
2023/09/14 00:07:32;;;;;;;13.77;6.07;;;17.50;99.90;;;;;;4194146;28;20377;-62
2023/09/14 00:09:33;;;;;;;11.00;6.03;;;17.50;99.90;;;;;;4194667;28;20488;-61
2023/09/14 00:11:34;;;;;;;13.90;6.10;;;17.50;99.90;;;;;;4194025;28;20078;-63
2023/09/14 00:13:35;;;;;;;11.48;6.47;;;17.50;99.90;;;;;;4194828;28;20029;-60
2023/09/14 00:15:39;;;;;;;14.30;6.47;;;17.50;99.90;;;;;;4194251;28;20029;-64
2023/09/14 00:17:40;;;;;;;13.52;6.38;;;17.50;99.90;;;;;;4193789;28;20040;-58
2023/09/14 00:19:41;;;;;;;11.43;6.65;;;17.50;99.90;;;;;;4193980;28;20025;-62
2023/09/14 00:21:42;;;;;;;15.48;6.00;;;17.50;99.90;;;;;;4194185;28;20314;-64
2023/09/14 00:23:43;;;;;;;11.15;6.22;;;17.40;99.90;;;;;;4194069;28;20044;-62
2023/09/14 00:25:44;;;;;;;10.82;5.80;;;17.40;99.90;;;;;;4193233;28;20109;-63
2023/09/14 00:27:46;;;;;;;10.55;5.97;;;17.40;99.90;;;;;;4195086;28;20032;-63
2023/09/14 00:29:48;;;;;;;18.25;6.55;;;17.40;99.90;;;;;;4193304;28;20447;-62
2023/09/14 00:31:49;;;;;;;11.75;6.10;;;17.40;99.90;;;;;;4194870;28;20028;-63
2023/09/14 00:33:50;;;;;;;10.73;6.32;;;17.30;99.90;;;;;;4193231;28;20044;-63
2023/09/14 00:35:51;;;;;;;12.90;5.90;;;17.20;99.90;;;;;;4194751;28;20037;-62
2023/09/14 00:37:52;;;;;;;10.15;6.15;;;17.10;99.90;;;;;;4193006;28;20036;-62
2023/09/14 00:39:53;;;;;;;15.35;6.50;;;17.10;99.90;;;;;;4194941;28;20545;-62
2023/09/14 00:41:55;;;;;;;10.10;6.22;;;17.10;99.90;;;;;;4193726;28;20046;-60
2023/09/14 00:43:56;;;;;;;10.00;5.95;;;17.00;99.90;;;;;;4194666;28;20029;-63
2023/09/14 00:45:57;;;;;;;12.05;6.95;;;17.00;99.90;;;;;;4193551;28;20538;-63
2023/09/14 00:48:02;;;;;;;16.98;6.07;;;17.00;99.90;;;;;;4193273;28;20102;-63
2023/09/14 00:50:05;;;;;;;10.95;6.50;;;17.00;99.90;;;;;;4193387;28;20048;-63
2023/09/14 00:52:06;;;;;;;14.48;6.10;;;17.00;99.90;;;;;;4193425;28;20041;-63
2023/09/14 00:54:08;;;;;;;11.13;5.93;;;17.00;99.90;;;;;;4194195;28;20020;-62
2023/09/14 00:56:11;;;;;;;10.10;5.30;;;16.90;99.90;;;;;;4193466;28;20024;-62
2023/09/14 00:58:15;;;;;;;12.20;6.18;;;16.90;99.90;;;;;;4193765;28;20585;-62
2023/09/14 01:00:17;;;;;;;7.55;5.70;;;16.90;99.90;;;;;;4192220;28;20048;-61
2023/09/14 01:02:18;;;;;;;7.97;5.47;;;16.90;99.90;;;;;;4193850;28;20465;-60
2023/09/14 01:04:19;;;;;;;9.60;5.32;;;16.80;99.90;;;;;;4193060;28;20480;-63
2023/09/14 01:06:21;;;;;;;15.00;5.93;;;16.80;99.90;;;;;;4194934;28;20032;-63
2023/09/14 01:08:22;;;;;;;9.88;6.18;;;16.90;99.90;;;;;;4193417;28;20032;-63
2023/09/14 01:10:24;;;;;;;11.70;6.45;;;16.80;99.90;;;;;;4194501;28;20535;-62
2023/09/14 01:12:26;;;;;;;10.25;6.18;;;16.70;99.90;;;;;;4193286;28;20036;-62
2023/09/14 01:14:43;;;;;;;11.05;5.88;;;16.60;99.90;;;;;;4194468;28;20036;-63
2023/09/14 01:16:55;;;;;;;13.25;5.65;;;16.60;99.90;;;;;;4192646;28;20078;-63
2023/09/14 01:19:24;;;;;;;9.20;5.10;;;16.60;99.90;;;;;;4194311;28;20077;-63
2023/09/14 01:22:05;;;;;;;8.45;4.97;;;16.50;99.90;;;;;;4192318;28;20056;-61
2023/09/14 01:24:08;;;;;;;;;;;16.50;99.90;;;;;;4194403;28;20523;-63
2023/09/14 01:26:10;;;;;;;11.57;5.53;;;16.40;99.90;;;;;;4193243;28;19954;-64
2023/09/14 01:28:13;;;;;;;11.27;6.13;;;16.40;99.90;;;;;;4194248;28;20358;-62
2023/09/14 01:30:14;;;;;;;8.27;5.80;;;16.30;99.90;;;;;;4192575;28;20048;-64
2023/09/14 01:32:16;;;;;;;15.70;6.50;;;16.30;99.90;;;;;;4194203;28;20114;-63
2023/09/14 01:34:17;;;;;;;11.32;5.55;;;16.20;99.90;;;;;;4192772;28;20505;-64
2023/09/14 01:36:42;;;;;;;13.23;6.35;;;16.20;99.90;;;;;;4194711;28;20102;-63
2023/09/14 01:38:45;;;;;;;10.98;5.38;;;16.20;99.90;;;;;;4192540;28;20040;-64
2023/09/14 01:40:48;;;;;;;10.10;5.57;;;16.20;99.90;;;;;;4194239;28;20153;-64
2023/09/14 01:42:50;;;;;;;12.60;6.60;;;16.20;99.90;;;;;;4192828;28;20078;-62
2023/09/14 01:44:52;;;;;;;16.75;6.72;;;16.10;99.90;;;;;;4194326;28;20033;-63
2023/09/14 01:46:54;;;;;;;11.77;6.30;;;16.00;99.90;;;;;;4192782;28;20457;-63
2023/09/14 01:48:56;;;;;;;11.43;6.40;;;16.00;99.90;;;;;;4193877;28;20029;-63
2023/09/14 01:50:57;;;;;;;17.90;6.35;;;16.00;99.90;;;;;;4192581;28;20053;-65
2023/09/14 01:52:59;;;;;;;13.68;6.45;;;16.10;99.90;;;;;;4193730;28;20020;-65
2023/09/14 01:55:00;;;;;;;21.83;6.55;;;16.10;99.90;;;;;;4192347;28;20037;-64
2023/09/14 01:57:01;;;;;;;15.07;6.45;;;16.00;99.90;;;;;;4193033;28;20032;-65
2023/09/14 01:59:02;;;;;;;13.00;6.45;;;15.90;99.90;;;;;;4192732;28;20032;-64
2023/09/14 02:01:05;;;;;;;13.45;7.28;;;15.80;99.90;;;;;;4193016;28;20094;-65
2023/09/14 02:03:06;;;;;;;17.30;7.90;;;15.70;99.90;;;;;;4193013;28;20083;-64
2023/09/14 02:05:07;;;;;;;18.33;9.15;;;15.60;99.90;;;;;;4192026;28;20028;-64
2023/09/14 02:07:09;;;;;;;17.75;8.25;;;15.60;99.90;;;;;;4193863;28;20079;-64
2023/09/14 02:09:11;;;;;;;16.48;8.18;;;15.50;99.90;;;;;;4192716;28;20138;-64
2023/09/14 02:11:13;;;;;;;23.73;8.52;;;15.40;99.90;;;;;;4193995;28;20032;-64
2023/09/14 02:13:14;;;;;;;13.85;8.68;;;15.50;99.90;;;;;;4192690;28;20629;-64
2023/09/14 02:15:16;;;;;;;15.68;9.25;;;15.40;99.90;;;;;;4193895;28;20037;-64
2023/09/14 02:17:17;;;;;;;17.02;8.75;;;15.40;99.90;;;;;;4192349;28;20045;-63
2023/09/14 02:19:18;;;;;;;23.98;9.32;;;15.40;99.90;;;;;;4193722;28;20033;-64
2023/09/14 02:21:20;;;;;;;19.48;9.48;;;15.40;99.90;;;;;;4192616;28;20033;-63
2023/09/14 02:23:21;;;;;;;22.70;9.27;;;15.40;99.90;;;;;;4193460;28;20082;-65
2023/09/14 02:25:22;;;;;;;14.63;8.23;;;15.50;99.90;;;;;;4192245;28;20457;-64
2023/09/14 02:27:23;;;;;;;15.65;8.70;;;15.60;99.90;;;;;;4194079;28;20029;-63
2023/09/14 02:29:24;;;;;;;16.33;8.63;;;15.50;99.90;;;;;;4196372;28;20113;-63
2023/09/14 02:31:26;;;;;;;16.70;8.52;;;15.50;99.90;;;;;;4195220;28;20407;-63
2023/09/14 02:33:27;;;;;;;15.57;7.90;;;15.60;99.90;;;;;;4196433;28;20494;-65
2023/09/14 02:35:28;;;;;;;14.43;8.38;;;15.60;99.90;;;;;;4195181;28;20021;-64
2023/09/14 02:37:30;;;;;;;21.65;8.43;;;15.60;99.90;;;;;;4197149;28;20021;-63
2023/09/14 02:39:31;;;;;;;22.10;9.57;;;15.60;99.90;;;;;;4194951;28;20452;-63
2023/09/14 02:41:32;;;;;;;18.60;8.70;;;15.60;99.90;;;;;;4196683;28;20028;-64
2023/09/14 02:43:33;;;;;;;21.35;8.90;;;15.60;99.90;;;;;;4195463;28;20032;-61
2023/09/14 02:45:34;;;;;;;16.77;9.10;;;15.50;99.90;;;;;;4196150;28;20037;-62
2023/09/14 02:47:35;;;;;;;16.95;8.85;;;15.50;99.90;;;;;;4195263;28;20036;-64
2023/09/14 02:49:36;;;;;;;17.65;8.70;;;15.50;99.90;;;;;;4195980;28;20093;-63
2023/09/14 02:51:37;;;;;;;19.23;9.48;;;15.60;99.90;;;;;;4195358;28;20417;-63
2023/09/14 02:53:39;;;;;;;12.85;8.20;;;15.50;99.90;;;;;;4195979;28;20036;-65
2023/09/14 02:55:40;;;;;;;16.05;8.57;;;15.50;99.90;;;;;;4195466;28;20024;-63
2023/09/14 02:57:41;;;;;;;13.07;7.75;;;15.50;99.90;;;;;;4194931;28;20432;-64
2023/09/14 02:59:42;;;;;;;16.42;8.25;;;15.50;99.90;;;;;;4195357;28;20045;-64
2023/09/14 03:01:47;;;;;;;18.65;8.45;;;15.50;99.90;;;;;;4195166;28;20036;-63
2023/09/14 03:03:48;;;;;;;16.67;9.18;;;15.60;99.90;;;;;;4195134;28;20044;-62
2023/09/14 03:05:50;;;;;;;19.42;8.82;;;15.60;99.90;;;;;;4195145;28;20032;-64
2023/09/14 03:07:51;;;;;;;16.70;9.02;;;15.60;99.90;;;;;;4196765;28;20074;-62
2023/09/14 03:09:52;;;;;;;16.75;8.68;;;15.60;99.90;;;;;;4194530;28;20052;-63
2023/09/14 03:11:56;;;;;;;14.60;7.22;;;15.70;99.90;;;;;;4195778;28;20036;-65
2023/09/14 03:13:57;;;;;;;14.80;7.90;;;15.70;99.90;;;;;;4194432;28;20032;-61
2023/09/14 03:15:59;;;;;;;20.48;7.78;;;15.60;99.90;;;;;;4195111;28;20082;-62
2023/09/14 03:18:00;;;;;;;15.25;7.05;;;15.50;99.90;;;;;;4194760;28;20074;-62
2023/09/14 03:20:06;;;;;;;16.08;7.50;;;15.40;99.90;;;;;;4195321;28;20139;-62
2023/09/14 03:22:07;;;;;;;18.02;8.82;;;15.30;99.90;;;;;;4194056;28;20086;-63
2023/09/14 03:24:08;;;;;;;17.38;7.35;;;15.20;99.90;;;;;;4196041;28;20089;-65
2023/09/14 03:26:09;;;;;;;16.67;6.82;;;15.20;99.90;;;;;;4194694;28;20075;-63
2023/09/14 03:28:11;;;;;;;15.10;6.80;;;15.20;99.90;;;;;;4195686;28;20028;-65
2023/09/14 03:30:12;;;;;;;15.38;8.40;;;15.20;99.90;;;;;;4194968;28;20049;-61
2023/09/14 03:32:13;;;;;;;16.27;8.90;;;15.20;99.90;;;;;;4195075;28;20090;-59
2023/09/14 03:34:15;;;;;;;21.65;8.65;;;15.20;99.90;;;;;;4194333;28;20055;-64
2023/09/14 03:36:16;;;;;;;16.75;9.43;;;15.10;99.90;;;;;;4194770;28;20025;-62
2023/09/14 03:38:18;;;;;;;15.57;8.43;;;15.10;99.90;;;;;;4195298;28;20040;-64
2023/09/14 03:40:20;;;;;;;15.48;8.75;;;15.00;99.90;;;;;;4193353;28;20113;-64
2023/09/14 03:42:21;;;;;;;16.75;9.18;;;15.10;99.90;;;;;;4195572;28;20020;-64
2023/09/14 03:44:22;;;;;;;19.95;9.13;;;15.20;99.90;;;;;;4193696;28;20033;-63
2023/09/14 03:46:23;;;;;;;19.50;9.60;;;15.20;99.90;;;;;;4195598;28;20040;-61
2023/09/14 03:48:25;;;;;;;14.70;8.80;;;15.30;99.90;;;;;;4193500;28;20093;-63
2023/09/14 03:50:26;;;;;;;16.75;8.68;;;15.30;99.90;;;;;;4195322;28;20102;-59
2023/09/14 03:52:27;;;;;;;14.57;8.05;;;15.30;99.90;;;;;;4194226;28;20029;-61
2023/09/14 03:54:29;;;;;;;22.40;9.80;;;15.30;99.90;;;;;;4194829;28;20108;-61
2023/09/14 03:56:30;;;;;;;17.85;9.20;;;15.40;99.90;;;;;;4176023;28;20535;-61
2023/09/14 03:58:31;;;;;;;16.90;8.98;;;15.40;99.90;;;;;;4195269;28;20104;-62
2023/09/14 04:00:33;;;;;;;21.63;9.55;;;15.40;99.90;;;;;;4197951;28;20526;-61
2023/09/14 04:02:34;;;;;;;27.00;9.63;;;15.40;99.90;;;;;;4194354;28;20085;-62
2023/09/14 04:04:39;;;;;;;20.17;9.70;;;15.30;99.90;;;;;;4193912;28;20101;-61
2023/09/14 04:06:40;;;;;;;26.08;8.63;;;15.30;99.90;;;;;;4194070;28;20074;-61
2023/09/14 04:08:41;;;;;;;22.25;8.65;;;15.30;99.90;;;;;;4194889;28;20016;-61
2023/09/14 04:10:45;;;;;;;18.92;8.65;;;15.30;99.90;;;;;;4193553;28;20106;-61
2023/09/14 04:12:46;;;;;;;17.55;8.63;;;15.20;99.90;;;;;;4194827;28;20098;-61
2023/09/14 04:14:47;;;;;;;23.17;8.23;;;15.10;99.90;;;;;;4193020;28;20397;-64
2023/09/14 04:16:48;;;;;;;21.58;9.43;;;15.10;99.90;;;;;;4194593;28;20074;-64
2023/09/14 04:18:49;;;;;;;18.77;9.43;;;15.10;99.90;;;;;;4192908;28;20045;-61
2023/09/14 04:20:51;;;;;;;17.52;9.57;;;15.10;99.90;;;;;;4194717;28;20110;-64
2023/09/14 04:22:52;;;;;;;16.90;8.88;;;15.10;99.90;;;;;;4193390;28;20078;-64
2023/09/14 04:24:54;;;;;;;17.50;9.10;;;15.10;99.90;;;;;;4193437;28;20044;-64
2023/09/14 04:26:55;;;;;;;29.88;10.25;;;15.00;99.90;;;;;;4193326;28;20029;-64
2023/09/14 04:28:56;;;;;;;19.38;9.10;;;15.10;99.90;;;;;;4194222;28;20063;-64
2023/09/14 04:31:01;;;;;;;21.05;9.20;;;15.20;99.90;;;;;;4192450;28;20485;-62
2023/09/14 04:33:02;;;;;;;19.15;9.10;;;15.30;99.90;;;;;;4192447;28;20032;-63
2023/09/14 04:35:04;;;;;;;17.80;8.55;;;15.40;99.90;;;;;;4186009;28;20070;-61
2023/09/14 04:37:05;;;;;;;19.77;10.00;;;15.50;99.90;;;;;;4194129;28;20575;-64
2023/09/14 04:39:06;;;;;;;17.55;10.73;;;15.50;99.90;;;;;;4194302;28;20036;-62
2023/09/14 04:41:07;;;;;;;24.52;9.55;;;15.50;99.90;;;;;;4193194;28;20021;-62
2023/09/14 04:43:10;;;;;;;19.08;11.38;;;15.50;99.90;;;;;;4193579;28;20036;-61
2023/09/14 04:45:11;;;;;;;17.45;11.05;;;15.60;99.90;;;;;;4192478;28;20032;-64
2023/09/14 04:47:12;;;;;;;20.00;10.00;;;15.60;99.90;;;;;;4194247;28;20517;-63
2023/09/14 04:49:13;;;;;;;21.73;9.18;;;15.60;99.90;;;;;;4192582;28;20078;-64
2023/09/14 04:51:15;;;;;;;18.58;9.80;;;15.70;99.90;;;;;;4193874;28;20048;-63
2023/09/14 04:53:16;;;;;;;26.83;11.00;;;15.70;99.90;;;;;;4192708;28;20044;-65
2023/09/14 04:55:17;;;;;;;24.52;12.50;;;15.80;99.90;;;;;;4193514;28;20024;-63
2023/09/14 04:57:18;;;;;;;27.58;15.00;;;16.00;99.90;;;;;;4192919;28;20132;-63
2023/09/14 04:59:19;;;;;;;27.38;15.90;;;16.00;99.90;;;;;;4192821;28;20036;-63
2023/09/14 05:01:20;;;;;;;18.55;12.55;;;16.00;99.90;;;;;;4192681;28;20093;-61
2023/09/14 05:03:22;;;;;;;19.23;11.90;;;15.90;99.90;;;;;;4191993;28;20105;-65
2023/09/14 05:05:23;;;;;;;22.27;13.25;;;15.90;99.90;;;;;;4190986;28;20040;-63
2023/09/14 05:07:24;;;;;;;26.15;14.25;;;16.00;99.90;;;;;;4191716;28;20040;-64
2023/09/14 05:09:25;;;;;;;26.60;14.63;;;16.00;99.90;;;;;;4193744;28;20110;-63
2023/09/14 05:11:26;;;;;;;60.35;50.03;;;16.00;99.90;;;;;;4192906;28;20086;-64
2023/09/14 05:13:27;;;;;;;42.35;34.10;;;16.10;99.90;;;;;;4194263;28;20089;-63
2023/09/14 05:15:28;;;;;;;34.22;25.42;;;16.30;99.90;;;;;;4192879;28;20025;-65
2023/09/14 05:17:30;;;;;;;21.90;13.80;;;16.70;99.90;;;;;;4194112;28;20016;-65
2023/09/14 05:19:31;;;;;;;26.95;13.10;;;17.10;99.90;;;;;;4192758;28;20535;-63
2023/09/14 05:21:32;;;;;;;21.55;11.35;;;17.30;99.90;;;;;;4192954;28;20032;-65
2023/09/14 05:23:33;;;;;;;25.05;11.88;;;17.40;99.90;;;;;;4191631;28;20098;-64
2023/09/14 05:25:34;;;;;;;21.80;11.93;;;17.50;99.90;;;;;;4193803;28;20081;-60
2023/09/14 05:27:40;;;;;;;20.92;10.63;;;17.80;99.90;;;;;;4192732;28;20473;-62
2023/09/14 05:29:43;;;;;;;23.52;10.82;;;18.10;99.90;;;;;;4193146;28;20032;-64
2023/09/14 05:31:44;;;;;;;24.58;10.77;;;18.30;99.90;;;;;;4190022;28;20469;-62
2023/09/14 05:33:46;;;;;;;22.17;10.65;;;18.30;99.90;;;;;;4185952;28;20169;-61
2023/09/14 05:35:50;;;;;;;18.13;10.57;;;18.20;99.90;;;;;;4189415;28;20024;-61
2023/09/14 05:37:51;;;;;;;27.60;10.23;;;18.00;99.90;;;;;;4192149;28;20045;-60
2023/09/14 05:39:53;;;;;;;31.92;10.00;;;17.90;99.90;;;;;;4191984;28;20404;-62
2023/09/14 05:41:54;;;;;;;31.52;9.80;;;17.90;99.90;;;;;;4193269;28;20032;-63
2023/09/14 05:43:56;;;;;;;31.17;10.93;;;17.70;99.90;;;;;;4192935;28;20037;-61
2023/09/14 05:45:57;;;;;;;26.52;10.20;;;17.50;99.90;;;;;;4190147;28;20479;-61
2023/09/14 05:47:58;;;;;;;27.67;11.63;;;17.40;99.90;;;;;;4193774;28;20040;-62
2023/09/14 05:49:59;;;;;;;28.58;10.65;;;17.20;99.90;;;;;;4192668;28;20033;-61
2023/09/14 05:52:00;;;;;;;28.45;10.65;;;17.10;99.90;;;;;;4193262;28;20044;-62
2023/09/14 05:54:01;;;;;;;27.33;11.20;;;17.10;99.90;;;;;;4192390;28;20037;-62
2023/09/14 05:56:02;;;;;;;29.67;10.85;;;17.10;99.90;;;;;;4193321;28;20040;-61
2023/09/14 05:58:04;;;;;;;30.33;11.48;;;17.30;99.90;;;;;;4191960;28;20082;-62
2023/09/14 06:00:13;;;;;;;34.90;10.50;;;17.70;99.90;;;;;;4193243;28;20041;-60
2023/09/14 06:02:14;;;;;;;30.42;10.48;;;18.30;99.90;;;;;;4193174;28;20021;-62
2023/09/14 06:04:16;;;;;;;20.05;9.82;;;18.90;99.90;;;;;;4183440;28;20037;-60
2023/09/14 06:06:17;;;;;;;22.30;9.80;;;19.30;99.90;;;;;;4193312;28;20468;-60
2023/09/14 06:08:18;;;;;;;28.20;10.13;;;19.60;99.90;;;;;;4195992;28;20020;-61
2023/09/14 06:10:19;;;;;;;33.15;9.55;;;19.70;99.90;;;;;;4194734;28;20086;-61
2023/09/14 06:12:20;;;;;;;25.35;10.15;;;19.90;99.90;;;;;;4196336;28;20074;-61
2023/09/14 06:14:22;;;;;;;21.67;9.05;;;20.20;99.90;;;;;;4196764;28;20066;-62
2023/09/14 06:16:23;;;;;;;26.85;9.85;;;20.50;99.90;;;;;;4195153;28;20032;-60
2023/09/14 06:18:24;;;;;;;22.35;10.35;;;21.10;99.90;;;;;;4196601;28;20086;-60
2023/09/14 06:20:25;;;;;;;32.35;12.15;;;21.70;99.90;;;;;;4195686;28;20421;-61
2023/09/14 06:22:26;;;;;;;27.45;10.10;;;22.20;99.90;;;;;;4196836;28;20028;-60
2023/09/14 06:24:27;;;;;;;24.23;10.65;;;22.50;99.90;;;;;;4176765;28;20095;-60
2023/09/14 06:26:32;;;;;;;28.20;11.60;;;22.60;99.90;;;;;;4196266;28;20032;-61
2023/09/14 06:28:33;;;;;;;27.27;10.10;;;22.40;99.90;;;;;;4194538;28;20481;-62
2023/09/14 06:30:34;;;;;;;27.35;9.75;;;22.20;99.90;;;;;;4195549;28;20510;-58
2023/09/14 06:32:35;;;;;;;22.75;8.68;;;22.20;99.90;;;;;;4194805;28;20033;-61
2023/09/14 06:34:36;;;;;;;20.00;10.02;;;22.30;99.90;;;;;;4196902;28;20098;-59
2023/09/14 06:36:37;;;;;;;21.45;8.52;;;22.10;99.90;;;;;;4195247;28;20443;-61
2023/09/14 06:38:38;;;;;;;20.42;9.00;;;21.80;99.90;;;;;;4196230;28;20480;-62
2023/09/14 06:40:40;;;;;;;18.58;9.02;;;21.50;99.90;;;;;;4195661;28;20074;-63
2023/09/14 06:42:44;;;;;;;22.40;8.27;;;21.30;99.90;;;;;;4194799;28;20098;-61
2023/09/14 06:44:45;;;;;;;18.05;8.48;;;21.30;99.90;;;;;;4195612;28;20029;-62
2023/09/14 06:46:46;;;;;;;16.92;8.02;;;21.40;99.90;;;;;;4193610;28;20037;-61
2023/09/14 06:48:47;;;;;;;14.40;7.70;;;21.50;99.90;;;;;;4190683;28;20028;-63
2023/09/14 06:50:48;;;;;;;16.48;8.05;;;21.60;99.90;;;;;;4192777;28;20467;-62
2023/09/14 06:52:50;;;;;;;17.48;8.48;;;21.50;99.90;;;;;;4196302;28;20628;-62
2023/09/14 06:54:51;;;;;;;16.75;8.05;;;21.30;99.90;;;;;;4195195;28;20086;-63
2023/09/14 06:56:52;;;;;;;18.38;8.07;;;21.20;99.90;;;;;;4196469;28;20570;-62
2023/09/14 06:58:53;;;;;;;15.70;7.35;;;21.20;99.90;;;;;;4194999;28;20025;-61
2023/09/14 07:00:54;;;;;;;16.85;7.82;;;21.20;99.90;;;;;;4196207;28;20029;-63
2023/09/14 07:02:55;;;;;;;18.38;7.57;;;21.30;99.90;;;;;;4193420;28;20153;-61
2023/09/14 07:04:56;;;;;;;19.83;7.85;;;21.50;99.90;;;;;;4195409;28;20059;-63
2023/09/14 07:06:58;;;;;;;15.85;7.25;;;21.70;99.90;;;;;;4195310;28;20029;-63
2023/09/14 07:08:59;;;;;;;12.98;6.57;;;21.40;99.90;;;;;;4196003;28;20032;-61
2023/09/14 07:11:00;;;;;;;14.55;6.38;;;21.40;99.90;;;;;;4194596;28;20118;-61
2023/09/14 07:13:01;;;;;;;15.52;7.43;;;21.20;99.90;;;;;;4194899;28;20429;-62
2023/09/14 07:15:04;;;;;;;13.32;6.63;;;21.10;99.90;;;;;;4194848;28;20049;-62
2023/09/14 07:17:06;;;;;;;17.48;7.28;;;20.90;99.90;;;;;;4194763;28;20053;-62
2023/09/14 07:19:07;;;;;;;15.68;7.30;;;20.90;99.90;;;;;;4195551;28;20017;-62
2023/09/14 07:21:08;;;;;;;12.05;7.32;;;20.80;99.90;;;;;;4194011;28;20033;-64
2023/09/14 07:23:09;;;;;;;19.23;7.93;;;20.80;99.90;;;;;;4194796;28;20089;-64
2023/09/14 07:25:10;;;;;;;20.02;8.20;;;20.70;99.90;;;;;;4194023;28;20086;-62
2023/09/14 07:27:11;;;;;;;15.07;8.20;;;20.70;99.90;;;;;;4195129;28;20085;-63
2023/09/14 07:29:12;;;;;;;17.67;7.43;;;20.70;99.90;;;;;;4194134;28;20044;-62
2023/09/14 07:31:13;;;;;;;27.48;9.43;;;20.90;99.90;;;;;;4194935;28;20126;-61
2023/09/14 07:33:15;;;;;;;13.98;7.93;;;21.00;99.90;;;;;;4193485;28;20120;-63
2023/09/14 07:35:17;;;;;;;12.07;8.00;;;21.10;99.90;;;;;;4194383;28;20094;-64
2023/09/14 07:37:18;;;;;;;18.00;8.48;;;21.10;99.90;;;;;;4194496;28;20538;-61
2023/09/14 07:39:19;;;;;;;20.95;7.93;;;21.30;99.90;;;;;;4194403;28;20090;-64
2023/09/14 07:41:20;;;;;;;11.93;7.47;;;21.50;99.90;;;;;;4194294;28;20417;-59
2023/09/14 07:43:21;;;;;;;17.63;7.88;;;21.80;99.90;;;;;;4194746;28;20102;-64
2023/09/14 07:45:22;;;;;;;19.75;8.40;;;22.10;99.90;;;;;;4195063;28;20077;-65
2023/09/14 07:47:28;;;;;;;14.80;7.55;;;22.20;99.90;;;;;;4194661;28;20068;-65
2023/09/14 07:49:29;;;;;;;13.05;7.07;;;22.40;99.90;;;;;;4193875;28;20094;-60
2023/09/14 07:51:30;;;;;;;13.50;6.47;;;22.70;99.90;;;;;;4193987;28;20045;-62
2023/09/14 07:53:31;;;;;;;12.55;6.95;;;22.70;99.90;;;;;;4194604;28;20811;-59
2023/09/14 07:55:32;;;;;;;11.98;6.20;;;22.90;99.90;;;;;;4193152;28;20114;-61
2023/09/14 07:57:33;;;;;;;13.35;7.13;;;22.90;99.90;;;;;;4194871;28;20063;-62
2023/09/14 07:59:34;;;;;;;14.27;6.85;;;22.90;99.90;;;;;;4185259;28;20046;-65
2023/09/14 08:01:36;;;;;;;16.30;7.50;;;22.90;99.90;;;;;;4193846;28;20041;-64
2023/09/14 08:03:37;;;;;;;17.48;7.22;;;22.90;99.90;;;;;;4194009;28;20094;-62
2023/09/14 08:05:38;;;;;;;17.48;7.60;;;23.20;99.90;;;;;;4194533;28;20093;-64
2023/09/14 08:07:39;;;;;;;18.83;7.38;;;23.30;99.90;;;;;;4193866;28;20032;-61
2023/09/14 08:09:40;;;;;;;14.35;8.35;;;23.60;99.90;;;;;;4194543;28;20040;-61
2023/09/14 08:11:42;;;;;;;14.88;8.18;;;23.90;99.90;;;;;;4192952;28;20048;-58
2023/09/14 08:13:43;;;;;;;19.55;8.23;;;24.20;99.90;;;;;;4194534;28;20044;-63
2023/09/14 08:15:44;;;;;;;24.58;8.32;;;24.10;99.90;;;;;;4193443;28;20573;-63
2023/09/14 08:17:45;;;;;;;14.80;7.80;;;24.00;99.90;;;;;;4193889;28;20086;-63
2023/09/14 08:19:46;;;;;;;18.25;8.27;;;23.90;99.90;;;;;;4194418;28;20413;-64
2023/09/14 08:21:47;;;;;;;19.00;7.68;;;23.90;99.90;;;;;;4193922;28;20086;-64
2023/09/14 08:23:48;;;;;;;16.10;7.53;;;23.80;99.90;;;;;;4193768;28;20036;-61
2023/09/14 08:25:50;;;;;;;13.70;7.38;;;23.80;99.90;;;;;;4192095;28;20427;-64
2023/09/14 08:27:51;;;;;;;16.35;7.43;;;23.90;99.90;;;;;;4194750;28;20120;-64
2023/09/14 08:29:52;;;;;;;16.85;7.60;;;23.80;99.90;;;;;;4193421;28;20025;-60
2023/09/14 08:31:53;;;;;;;21.38;7.22;;;23.80;99.90;;;;;;4176301;28;20056;-61
2023/09/14 08:33:54;;;;;;;18.58;6.38;;;23.90;99.90;;;;;;4193474;28;20412;-61
2023/09/14 08:35:55;;;;;;;13.57;6.95;;;24.00;99.90;;;;;;4193151;28;20048;-61
2023/09/14 08:37:57;;;;;;;16.95;7.25;;;24.00;99.90;;;;;;4192387;28;20098;-60
2023/09/14 08:39:58;;;;;;;12.90;6.68;;;24.10;99.90;;;;;;4194445;28;20021;-60
2023/09/14 08:41:59;;;;;;;13.80;6.15;;;24.20;99.90;;;;;;4193117;28;20477;-61
2023/09/14 08:44:01;;;;;;;15.55;6.78;;;24.20;99.90;;;;;;4194139;28;20526;-63
2023/09/14 08:46:03;;;;;;;15.52;6.57;;;24.20;99.90;;;;;;4175646;28;20091;-60
2023/09/14 08:48:05;;;;;;;12.57;6.70;;;24.30;99.90;;;;;;4193911;28;20453;-60
2023/09/14 08:50:08;;;;;;;12.30;6.95;;;24.50;99.90;;;;;;4193673;28;20024;-60
2023/09/14 08:52:12;;;;;;;14.88;6.20;;;24.80;99.90;;;;;;4192460;28;20063;-60
2023/09/14 08:54:14;;;;;;;15.70;6.88;;;25.00;99.90;;;;;;4193205;28;20029;-61
2023/09/14 08:56:15;;;;;;;13.38;6.45;;;25.00;99.90;;;;;;4192399;28;20033;-60
2023/09/14 08:58:19;;;;;;;15.82;7.57;;;25.00;99.90;;;;;;4192989;28;20052;-62
2023/09/14 09:00:24;;;;;;;16.27;7.15;;;25.10;99.90;;;;;;4192841;28;21013;-61
2023/09/14 09:02:27;;;;;;;15.70;7.03;;;25.30;99.90;;;;;;4192123;28;20496;-62
2023/09/14 09:04:28;;;;;;;16.35;6.82;;;25.50;99.90;;;;;;4192051;28;20338;-61
2023/09/14 09:06:31;;;;;;;25.00;7.13;;;25.70;99.90;;;;;;4193310;28;20115;-59
2023/09/14 09:08:32;;;;;;;15.75;6.78;;;25.80;99.90;;;;;;4192056;28;20025;-61
2023/09/14 09:10:34;;;;;;;21.58;7.28;;;26.00;99.90;;;;;;4193772;28;20036;-61
2023/09/14 09:12:35;;;;;;;27.63;7.32;;;25.90;99.90;;;;;;4192110;28;20048;-61
2023/09/14 09:14:37;;;;;;;17.58;6.60;;;25.80;99.90;;;;;;4194575;28;20071;-61
2023/09/14 09:16:39;;;;;;;21.85;7.25;;;25.80;99.90;;;;;;4192743;28;20028;-63
2023/09/14 09:19:05;;;;;;;25.73;6.70;;;25.90;99.90;;;;;;4192762;28;20381;-60
2023/09/14 09:21:06;;;;;;;12.65;6.30;;;25.90;99.90;;;;;;4192768;28;20059;-61
2023/09/14 09:23:08;;;;;;;14.13;5.55;;;26.00;99.90;;;;;;4193111;28;20106;-63
2023/09/14 09:25:11;;;;;;;15.13;7.10;;;25.90;99.90;;;;;;4192463;28;20029;-61
2023/09/14 09:27:27;;;;;;;16.35;6.68;;;25.90;99.90;;;;;;4193588;28;20469;-62
2023/09/14 09:29:28;;;;;;;9.23;5.70;;;26.00;99.90;;;;;;4192889;28;20067;-62
2023/09/14 09:31:43;;;;;;;11.48;5.40;;;26.20;99.90;;;;;;4193482;28;20195;-62
2023/09/14 09:33:49;;;;;;;8.95;5.63;;;26.20;99.90;;;;;;4192779;28;20082;-61
2023/09/14 09:35:50;;;;;;;14.48;6.70;;;26.30;99.90;;;;;;4193235;28;20028;-60
2023/09/14 09:37:53;;;;;;;22.38;6.32;;;26.30;99.90;;;;;;4192007;28;20438;-60
2023/09/14 09:39:55;;;;;;;16.40;5.85;;;26.40;99.90;;;;;;4192120;28;20067;-63
2023/09/14 09:41:56;;;;;;;17.40;6.10;;;26.30;99.90;;;;;;4174857;28;20087;-62
2023/09/14 09:43:57;;;;;;;11.45;5.13;;;26.20;99.90;;;;;;4192475;28;20040;-62
2023/09/14 09:45:58;;;;;;;10.55;5.50;;;26.40;99.90;;;;;;4193855;28;20465;-60
2023/09/14 09:48:03;;;;;;;17.25;6.93;;;26.50;99.90;;;;;;4192567;28;20025;-61
2023/09/14 09:50:10;;;;;;;11.90;5.63;;;26.60;99.90;;;;;;4193487;28;20090;-62
2023/09/14 09:52:12;;;;;;;17.80;6.13;;;26.60;99.90;;;;;;4190807;28;20422;-62
2023/09/14 09:54:13;;;;;;;13.73;5.95;;;26.90;99.90;;;;;;4192063;28;20037;-61
2023/09/14 09:56:21;;;;;;;12.25;6.03;;;27.00;99.90;;;;;;4192150;28;20496;-63
2023/09/14 09:58:37;;;;;;;19.88;6.90;;;27.00;99.90;;;;;;4193720;28;20538;-63
2023/09/14 10:00:39;;;;;;;17.55;5.45;;;27.20;99.90;;;;;;4192610;28;20074;-60
2023/09/14 10:02:41;;;;;;;14.80;5.60;;;27.30;99.90;;;;;;4192629;28;20113;-61
2023/09/14 10:04:52;;;;;;;12.40;5.50;;;27.50;99.90;;;;;;4190036;28;20098;-64
2023/09/14 10:06:59;;;;;;;15.02;6.05;;;27.60;99.90;;;;;;4193016;28;20477;-64
2023/09/14 10:09:06;;;;;;;13.38;5.60;;;27.60;99.90;;;;;;4191769;28;20045;-61
2023/09/14 10:11:07;;;;;;;14.30;6.47;;;27.60;99.90;;;;;;4192311;28;20106;-61
2023/09/14 10:13:16;;;;;;;9.85;5.00;;;27.80;99.90;;;;;;4192164;28;20049;-61
2023/09/14 10:15:18;;;;;;;12.88;5.78;;;27.90;99.90;;;;;;4193573;28;20118;-63
2023/09/14 10:17:22;;;;;;;14.63;5.60;;;27.90;99.90;;;;;;4174201;28;20037;-64
2023/09/14 10:19:25;;;;;;;14.90;5.93;;;28.00;99.90;;;;;;4193163;28;20018;-64
2023/09/14 10:21:27;;;;;;;11.80;5.60;;;28.10;99.90;;;;;;4186494;28;20178;-62
2023/09/14 10:23:29;;;;;;;17.98;6.75;;;28.20;99.90;;;;;;4193213;28;20029;-61
2023/09/14 10:25:31;;;;;;;16.58;6.00;;;28.20;99.80;;;;;;4192246;28;20070;-62
2023/09/14 10:27:33;;;;;;;12.15;5.35;;;28.20;99.80;;;;;;4192479;28;20153;-63